sensor_id;sensor_type;location;lat;lon;timestamp;P1;durP1;ratioP1;P2;durP2;ratioP2
27113;SDS011;14648;49.730;8.614;2023-04-24T00:01:41;1.00;;;0.90;;
27113;SDS011;14648;49.730;8.614;2023-04-24T00:04:07;1.10;;;1.00;;
27113;SDS011;14648;49.730;8.614;2023-04-24T00:06:36;1.20;;;1.03;;
27113;SDS011;14648;49.730;8.614;2023-04-24T00:09:05;2.97;;;0.90;;
27113;SDS011;14648;49.730;8.614;2023-04-24T00:11:30;4.30;;;1.00;;
27113;SDS011;14648;49.730;8.614;2023-04-24T00:13:56;1.13;;;1.03;;
27113;SDS011;14648;49.730;8.614;2023-04-24T00:16:22;2.07;;;0.87;;
27113;SDS011;14648;49.730;8.614;2023-04-24T00:18:48;1.03;;;0.90;;
27113;SDS011;14648;49.730;8.614;2023-04-24T00:21:14;2.03;;;1.23;;
27113;SDS011;14648;49.730;8.614;2023-04-24T00:23:42;5.77;;;1.40;;
27113;SDS011;14648;49.730;8.614;2023-04-24T00:26:09;2.20;;;1.80;;
27113;SDS011;14648;49.730;8.614;2023-04-24T00:28:35;2.27;;;1.50;;
27113;SDS011;14648;49.730;8.614;2023-04-24T00:31:00;2.83;;;0.90;;
27113;SDS011;14648;49.730;8.614;2023-04-24T00:33:26;2.57;;;1.00;;
27113;SDS011;14648;49.730;8.614;2023-04-24T00:35:52;1.30;;;1.20;;
27113;SDS011;14648;49.730;8.614;2023-04-24T00:38:18;1.00;;;0.90;;
27113;SDS011;14648;49.730;8.614;2023-04-24T00:40:44;1.10;;;1.00;;
27113;SDS011;14648;49.730;8.614;2023-04-24T00:43:11;1.50;;;1.20;;
27113;SDS011;14648;49.730;8.614;2023-04-24T00:45:37;1.27;;;1.10;;
27113;SDS011;14648;49.730;8.614;2023-04-24T00:48:02;1.23;;;1.13;;
27113;SDS011;14648;49.730;8.614;2023-04-24T00:50:29;2.20;;;1.17;;
27113;SDS011;14648;49.730;8.614;2023-04-24T00:52:55;0.90;;;0.90;;
27113;SDS011;14648;49.730;8.614;2023-04-24T00:55:21;1.30;;;1.20;;
27113;SDS011;14648;49.730;8.614;2023-04-24T00:57:47;1.53;;;1.03;;
27113;SDS011;14648;49.730;8.614;2023-04-24T01:00:14;1.07;;;1.00;;
27113;SDS011;14648;49.730;8.614;2023-04-24T01:02:43;0.90;;;0.80;;
27113;SDS011;14648;49.730;8.614;2023-04-24T01:05:10;1.33;;;1.10;;
27113;SDS011;14648;49.730;8.614;2023-04-24T01:07:38;5.63;;;1.07;;
27113;SDS011;14648;49.730;8.614;2023-04-24T01:10:11;1.23;;;1.10;;
27113;SDS011;14648;49.730;8.614;2023-04-24T01:12:38;1.50;;;1.00;;
27113;SDS011;14648;49.730;8.614;2023-04-24T01:15:04;1.43;;;1.00;;
27113;SDS011;14648;49.730;8.614;2023-04-24T01:17:31;1.57;;;1.10;;
27113;SDS011;14648;49.730;8.614;2023-04-24T01:19:58;1.17;;;1.03;;
27113;SDS011;14648;49.730;8.614;2023-04-24T01:22:26;1.10;;;1.00;;
27113;SDS011;14648;49.730;8.614;2023-04-24T01:24:52;1.10;;;1.00;;
27113;SDS011;14648;49.730;8.614;2023-04-24T01:27:21;1.00;;;1.00;;
27113;SDS011;14648;49.730;8.614;2023-04-24T01:29:46;3.80;;;0.87;;
27113;SDS011;14648;49.730;8.614;2023-04-24T01:32:14;1.33;;;1.23;;
27113;SDS011;14648;49.730;8.614;2023-04-24T01:34:40;2.20;;;1.00;;
27113;SDS011;14648;49.730;8.614;2023-04-24T01:37:06;1.33;;;1.10;;
27113;SDS011;14648;49.730;8.614;2023-04-24T01:39:32;1.40;;;1.20;;
27113;SDS011;14648;49.730;8.614;2023-04-24T01:41:58;1.30;;;1.00;;
27113;SDS011;14648;49.730;8.614;2023-04-24T01:44:26;2.80;;;1.10;;
27113;SDS011;14648;49.730;8.614;2023-04-24T01:46:52;1.30;;;1.10;;
27113;SDS011;14648;49.730;8.614;2023-04-24T01:49:19;1.10;;;1.00;;
27113;SDS011;14648;49.730;8.614;2023-04-24T01:51:45;3.60;;;1.10;;
27113;SDS011;14648;49.730;8.614;2023-04-24T01:54:11;2.00;;;0.90;;
27113;SDS011;14648;49.730;8.614;2023-04-24T01:56:38;1.37;;;1.27;;
27113;SDS011;14648;49.730;8.614;2023-04-24T01:59:07;1.60;;;1.20;;
27113;SDS011;14648;49.730;8.614;2023-04-24T02:01:36;1.77;;;1.47;;
27113;SDS011;14648;49.730;8.614;2023-04-24T02:04:03;1.43;;;1.00;;
27113;SDS011;14648;49.730;8.614;2023-04-24T02:06:30;1.57;;;1.10;;
27113;SDS011;14648;49.730;8.614;2023-04-24T02:08:56;1.10;;;1.00;;
27113;SDS011;14648;49.730;8.614;2023-04-24T02:11:23;1.57;;;1.37;;
27113;SDS011;14648;49.730;8.614;2023-04-24T02:13:49;6.20;;;1.57;;
27113;SDS011;14648;49.730;8.614;2023-04-24T02:16:16;1.33;;;1.00;;
27113;SDS011;14648;49.730;8.614;2023-04-24T02:18:42;2.60;;;1.03;;
27113;SDS011;14648;49.730;8.614;2023-04-24T02:21:09;8.43;;;1.23;;
27113;SDS011;14648;49.730;8.614;2023-04-24T02:23:35;1.43;;;0.80;;
27113;SDS011;14648;49.730;8.614;2023-04-24T02:26:00;1.37;;;1.00;;
27113;SDS011;14648;49.730;8.614;2023-04-24T02:28:26;1.30;;;1.07;;
27113;SDS011;14648;49.730;8.614;2023-04-24T02:30:52;2.93;;;0.93;;
27113;SDS011;14648;49.730;8.614;2023-04-24T02:33:17;4.00;;;0.90;;
27113;SDS011;14648;49.730;8.614;2023-04-24T02:35:43;1.90;;;1.00;;
27113;SDS011;14648;49.730;8.614;2023-04-24T02:38:09;2.00;;;1.43;;
27113;SDS011;14648;49.730;8.614;2023-04-24T02:40:34;7.40;;;1.40;;
27113;SDS011;14648;49.730;8.614;2023-04-24T02:43:03;1.53;;;1.20;;
27113;SDS011;14648;49.730;8.614;2023-04-24T02:45:29;2.33;;;1.23;;
27113;SDS011;14648;49.730;8.614;2023-04-24T02:47:54;1.30;;;1.20;;
27113;SDS011;14648;49.730;8.614;2023-04-24T02:50:20;1.63;;;1.53;;
27113;SDS011;14648;49.730;8.614;2023-04-24T02:52:46;2.00;;;0.90;;
27113;SDS011;14648;49.730;8.614;2023-04-24T02:55:11;2.40;;;1.60;;
27113;SDS011;14648;49.730;8.614;2023-04-24T02:57:40;1.50;;;1.40;;
27113;SDS011;14648;49.730;8.614;2023-04-24T03:00:06;3.53;;;1.33;;
27113;SDS011;14648;49.730;8.614;2023-04-24T03:02:33;4.57;;;1.87;;
27113;SDS011;14648;49.730;8.614;2023-04-24T03:04:59;1.60;;;0.97;;
27113;SDS011;14648;49.730;8.614;2023-04-24T03:07:25;3.03;;;1.17;;
27113;SDS011;14648;49.730;8.614;2023-04-24T03:09:51;5.30;;;1.17;;
27113;SDS011;14648;49.730;8.614;2023-04-24T03:12:17;2.30;;;1.50;;
27113;SDS011;14648;49.730;8.614;2023-04-24T03:14:43;3.43;;;1.10;;
27113;SDS011;14648;49.730;8.614;2023-04-24T03:17:09;1.37;;;1.10;;
27113;SDS011;14648;49.730;8.614;2023-04-24T03:19:34;1.30;;;1.20;;
27113;SDS011;14648;49.730;8.614;2023-04-24T03:22:01;1.80;;;1.70;;
27113;SDS011;14648;49.730;8.614;2023-04-24T03:24:28;1.33;;;1.23;;
27113;SDS011;14648;49.730;8.614;2023-04-24T03:26:53;4.40;;;1.20;;
27113;SDS011;14648;49.730;8.614;2023-04-24T03:29:21;5.60;;;1.67;;
27113;SDS011;14648;49.730;8.614;2023-04-24T03:31:46;1.83;;;1.40;;
27113;SDS011;14648;49.730;8.614;2023-04-24T03:34:12;1.53;;;1.23;;
27113;SDS011;14648;49.730;8.614;2023-04-24T03:36:38;1.77;;;1.03;;
27113;SDS011;14648;49.730;8.614;2023-04-24T03:39:03;0.97;;;0.97;;
27113;SDS011;14648;49.730;8.614;2023-04-24T03:41:29;1.73;;;1.33;;
27113;SDS011;14648;49.730;8.614;2023-04-24T03:43:55;1.70;;;1.13;;
27113;SDS011;14648;49.730;8.614;2023-04-24T03:46:21;3.73;;;1.20;;
27113;SDS011;14648;49.730;8.614;2023-04-24T03:48:47;3.00;;;1.33;;
27113;SDS011;14648;49.730;8.614;2023-04-24T03:51:12;2.50;;;1.53;;
27113;SDS011;14648;49.730;8.614;2023-04-24T03:53:38;1.43;;;1.30;;
27113;SDS011;14648;49.730;8.614;2023-04-24T03:56:04;4.00;;;1.70;;
27113;SDS011;14648;49.730;8.614;2023-04-24T03:58:30;0.90;;;0.90;;
27113;SDS011;14648;49.730;8.614;2023-04-24T04:00:56;1.20;;;1.10;;
27113;SDS011;14648;49.730;8.614;2023-04-24T04:03:25;2.27;;;1.20;;
27113;SDS011;14648;49.730;8.614;2023-04-24T04:05:50;1.30;;;1.20;;
27113;SDS011;14648;49.730;8.614;2023-04-24T04:08:16;1.80;;;1.70;;
27113;SDS011;14648;49.730;8.614;2023-04-24T04:10:42;1.80;;;1.40;;
27113;SDS011;14648;49.730;8.614;2023-04-24T04:13:08;1.93;;;1.40;;
27113;SDS011;14648;49.730;8.614;2023-04-24T04:15:33;3.10;;;1.50;;
27113;SDS011;14648;49.730;8.614;2023-04-24T04:17:59;1.63;;;1.50;;
27113;SDS011;14648;49.730;8.614;2023-04-24T04:20:25;2.67;;;2.47;;
27113;SDS011;14648;49.730;8.614;2023-04-24T04:22:51;1.80;;;1.70;;
27113;SDS011;14648;49.730;8.614;2023-04-24T04:25:16;1.50;;;1.40;;
27113;SDS011;14648;49.730;8.614;2023-04-24T04:27:44;1.83;;;1.70;;
27113;SDS011;14648;49.730;8.614;2023-04-24T04:30:13;1.93;;;1.80;;
27113;SDS011;14648;49.730;8.614;2023-04-24T04:32:39;1.70;;;1.60;;
27113;SDS011;14648;49.730;8.614;2023-04-24T04:35:04;6.20;;;2.37;;
27113;SDS011;14648;49.730;8.614;2023-04-24T04:37:31;1.80;;;1.70;;
27113;SDS011;14648;49.730;8.614;2023-04-24T04:40:00;2.80;;;2.60;;
27113;SDS011;14648;49.730;8.614;2023-04-24T04:42:31;1.87;;;1.77;;
27113;SDS011;14648;49.730;8.614;2023-04-24T04:44:59;2.00;;;1.90;;
27113;SDS011;14648;49.730;8.614;2023-04-24T04:47:25;3.13;;;1.80;;
27113;SDS011;14648;49.730;8.614;2023-04-24T04:49:53;4.50;;;2.80;;
27113;SDS011;14648;49.730;8.614;2023-04-24T04:52:19;2.13;;;1.93;;
27113;SDS011;14648;49.730;8.614;2023-04-24T04:54:45;2.23;;;2.10;;
27113;SDS011;14648;49.730;8.614;2023-04-24T04:57:11;4.03;;;2.30;;
27113;SDS011;14648;49.730;8.614;2023-04-24T04:59:37;2.10;;;2.00;;
27113;SDS011;14648;49.730;8.614;2023-04-24T05:02:03;2.40;;;2.20;;
27113;SDS011;14648;49.730;8.614;2023-04-24T05:04:29;2.50;;;2.30;;
27113;SDS011;14648;49.730;8.614;2023-04-24T05:06:55;2.17;;;1.97;;
27113;SDS011;14648;49.730;8.614;2023-04-24T05:09:21;2.37;;;2.27;;
27113;SDS011;14648;49.730;8.614;2023-04-24T05:11:47;2.60;;;2.30;;
27113;SDS011;14648;49.730;8.614;2023-04-24T05:14:12;4.57;;;3.33;;
27113;SDS011;14648;49.730;8.614;2023-04-24T05:16:38;5.13;;;2.73;;
27113;SDS011;14648;49.730;8.614;2023-04-24T05:19:05;4.33;;;2.67;;
27113;SDS011;14648;49.730;8.614;2023-04-24T05:21:31;3.40;;;2.57;;
27113;SDS011;14648;49.730;8.614;2023-04-24T05:23:57;3.40;;;3.10;;
27113;SDS011;14648;49.730;8.614;2023-04-24T05:26:22;2.80;;;2.50;;
27113;SDS011;14648;49.730;8.614;2023-04-24T05:28:48;4.20;;;2.80;;
27113;SDS011;14648;49.730;8.614;2023-04-24T05:31:14;3.27;;;3.00;;
27113;SDS011;14648;49.730;8.614;2023-04-24T05:33:40;3.03;;;2.83;;
27113;SDS011;14648;49.730;8.614;2023-04-24T05:36:06;3.43;;;3.17;;
27113;SDS011;14648;49.730;8.614;2023-04-24T05:38:32;6.40;;;3.23;;
27113;SDS011;14648;49.730;8.614;2023-04-24T05:40:58;4.40;;;3.00;;
27113;SDS011;14648;49.730;8.614;2023-04-24T05:43:23;6.93;;;3.50;;
27113;SDS011;14648;49.730;8.614;2023-04-24T05:45:50;3.37;;;3.07;;
27113;SDS011;14648;49.730;8.614;2023-04-24T05:48:15;6.20;;;3.40;;
27113;SDS011;14648;49.730;8.614;2023-04-24T05:50:42;12.93;;;2.70;;
27113;SDS011;14648;49.730;8.614;2023-04-24T05:53:08;2.73;;;2.57;;
27113;SDS011;14648;49.730;8.614;2023-04-24T05:55:35;3.67;;;2.97;;
27113;SDS011;14648;49.730;8.614;2023-04-24T05:58:01;5.33;;;2.73;;
27113;SDS011;14648;49.730;8.614;2023-04-24T06:00:27;7.80;;;3.20;;
27113;SDS011;14648;49.730;8.614;2023-04-24T06:02:53;7.57;;;4.30;;
27113;SDS011;14648;49.730;8.614;2023-04-24T06:05:20;4.83;;;3.57;;
27113;SDS011;14648;49.730;8.614;2023-04-24T06:07:45;3.30;;;3.00;;
27113;SDS011;14648;49.730;8.614;2023-04-24T06:10:11;3.83;;;3.10;;
27113;SDS011;14648;49.730;8.614;2023-04-24T06:12:37;5.37;;;3.93;;
27113;SDS011;14648;49.730;8.614;2023-04-24T06:15:03;7.47;;;3.23;;
27113;SDS011;14648;49.730;8.614;2023-04-24T06:17:30;9.40;;;4.70;;
27113;SDS011;14648;49.730;8.614;2023-04-24T06:19:56;8.53;;;4.10;;
27113;SDS011;14648;49.730;8.614;2023-04-24T06:22:22;4.57;;;4.03;;
27113;SDS011;14648;49.730;8.614;2023-04-24T06:24:48;6.67;;;3.87;;
27113;SDS011;14648;49.730;8.614;2023-04-24T06:27:14;5.00;;;4.60;;
27113;SDS011;14648;49.730;8.614;2023-04-24T06:29:39;14.03;;;4.10;;
27113;SDS011;14648;49.730;8.614;2023-04-24T06:32:05;4.63;;;4.13;;
27113;SDS011;14648;49.730;8.614;2023-04-24T06:34:31;4.57;;;4.17;;
27113;SDS011;14648;49.730;8.614;2023-04-24T06:36:59;4.50;;;3.87;;
27113;SDS011;14648;49.730;8.614;2023-04-24T06:39:25;4.20;;;3.60;;
27113;SDS011;14648;49.730;8.614;2023-04-24T06:41:51;5.87;;;4.53;;
27113;SDS011;14648;49.730;8.614;2023-04-24T06:44:16;5.40;;;4.90;;
27113;SDS011;14648;49.730;8.614;2023-04-24T06:46:42;7.03;;;5.27;;
27113;SDS011;14648;49.730;8.614;2023-04-24T06:49:08;5.57;;;4.20;;
27113;SDS011;14648;49.730;8.614;2023-04-24T06:51:34;5.33;;;4.13;;
27113;SDS011;14648;49.730;8.614;2023-04-24T06:54:00;6.43;;;4.53;;
27113;SDS011;14648;49.730;8.614;2023-04-24T06:56:26;5.33;;;4.80;;
27113;SDS011;14648;49.730;8.614;2023-04-24T06:58:54;7.23;;;4.67;;
27113;SDS011;14648;49.730;8.614;2023-04-24T07:01:20;5.13;;;4.30;;
27113;SDS011;14648;49.730;8.614;2023-04-24T07:03:46;5.50;;;4.43;;
27113;SDS011;14648;49.730;8.614;2023-04-24T07:06:11;5.50;;;4.40;;
27113;SDS011;14648;49.730;8.614;2023-04-24T07:08:37;7.17;;;3.93;;
27113;SDS011;14648;49.730;8.614;2023-04-24T07:11:03;7.50;;;4.20;;
27113;SDS011;14648;49.730;8.614;2023-04-24T07:13:30;5.40;;;3.63;;
27113;SDS011;14648;49.730;8.614;2023-04-24T07:15:56;4.50;;;4.10;;
27113;SDS011;14648;49.730;8.614;2023-04-24T07:18:22;5.30;;;3.83;;
27113;SDS011;14648;49.730;8.614;2023-04-24T07:20:47;5.93;;;3.93;;
27113;SDS011;14648;49.730;8.614;2023-04-24T07:23:17;7.70;;;3.93;;
27113;SDS011;14648;49.730;8.614;2023-04-24T07:25:43;4.07;;;3.67;;
27113;SDS011;14648;49.730;8.614;2023-04-24T07:28:09;6.40;;;4.67;;
27113;SDS011;14648;49.730;8.614;2023-04-24T07:30:35;3.30;;;3.10;;
27113;SDS011;14648;49.730;8.614;2023-04-24T07:33:00;4.20;;;2.87;;
27113;SDS011;14648;49.730;8.614;2023-04-24T07:35:26;3.17;;;2.40;;
27113;SDS011;14648;49.730;8.614;2023-04-24T07:37:55;6.50;;;2.80;;
27113;SDS011;14648;49.730;8.614;2023-04-24T07:40:21;3.10;;;2.90;;
27113;SDS011;14648;49.730;8.614;2023-04-24T07:42:47;3.40;;;3.20;;
27113;SDS011;14648;49.730;8.614;2023-04-24T07:45:13;3.50;;;3.20;;
27113;SDS011;14648;49.730;8.614;2023-04-24T07:47:43;8.80;;;2.30;;
27113;SDS011;14648;49.730;8.614;2023-04-24T07:50:10;3.00;;;2.80;;
27113;SDS011;14648;49.730;8.614;2023-04-24T07:52:37;2.30;;;2.20;;
27113;SDS011;14648;49.730;8.614;2023-04-24T07:55:04;2.83;;;2.50;;
27113;SDS011;14648;49.730;8.614;2023-04-24T07:57:30;2.87;;;2.67;;
27113;SDS011;14648;49.730;8.614;2023-04-24T07:59:56;3.47;;;2.20;;
27113;SDS011;14648;49.730;8.614;2023-04-24T08:02:21;4.23;;;2.53;;
27113;SDS011;14648;49.730;8.614;2023-04-24T08:04:51;3.27;;;2.67;;
27113;SDS011;14648;49.730;8.614;2023-04-24T08:07:19;1.80;;;1.70;;
27113;SDS011;14648;49.730;8.614;2023-04-24T08:09:45;1.70;;;1.60;;
27113;SDS011;14648;49.730;8.614;2023-04-24T08:12:11;2.30;;;1.67;;
27113;SDS011;14648;49.730;8.614;2023-04-24T08:14:37;3.50;;;1.53;;
27113;SDS011;14648;49.730;8.614;2023-04-24T08:17:02;9.47;;;1.87;;
27113;SDS011;14648;49.730;8.614;2023-04-24T08:19:28;2.40;;;2.20;;
27113;SDS011;14648;49.730;8.614;2023-04-24T08:21:54;2.00;;;1.90;;
27113;SDS011;14648;49.730;8.614;2023-04-24T08:24:20;2.60;;;2.40;;
27113;SDS011;14648;49.730;8.614;2023-04-24T08:26:47;3.80;;;2.67;;
27113;SDS011;14648;49.730;8.614;2023-04-24T08:29:15;2.73;;;2.53;;
27113;SDS011;14648;49.730;8.614;2023-04-24T08:31:41;3.07;;;2.03;;
27113;SDS011;14648;49.730;8.614;2023-04-24T08:34:07;8.13;;;2.63;;
27113;SDS011;14648;49.730;8.614;2023-04-24T08:36:34;6.80;;;2.60;;
27113;SDS011;14648;49.730;8.614;2023-04-24T08:39:00;6.60;;;4.50;;
27113;SDS011;14648;49.730;8.614;2023-04-24T08:41:26;3.90;;;2.60;;
27113;SDS011;14648;49.730;8.614;2023-04-24T08:43:53;2.80;;;2.27;;
27113;SDS011;14648;49.730;8.614;2023-04-24T08:46:20;6.50;;;1.97;;
27113;SDS011;14648;49.730;8.614;2023-04-24T08:48:46;3.63;;;3.10;;
27113;SDS011;14648;49.730;8.614;2023-04-24T08:51:14;4.27;;;3.43;;
27113;SDS011;14648;49.730;8.614;2023-04-24T08:53:40;4.30;;;2.50;;
27113;SDS011;14648;49.730;8.614;2023-04-24T08:56:06;4.00;;;2.47;;
27113;SDS011;14648;49.730;8.614;2023-04-24T08:58:32;2.70;;;2.17;;
27113;SDS011;14648;49.730;8.614;2023-04-24T09:00:58;2.53;;;2.37;;
27113;SDS011;14648;49.730;8.614;2023-04-24T09:03:26;2.30;;;2.20;;
27113;SDS011;14648;49.730;8.614;2023-04-24T09:05:53;2.63;;;2.53;;
27113;SDS011;14648;49.730;8.614;2023-04-24T09:08:21;3.93;;;2.67;;
27113;SDS011;14648;49.730;8.614;2023-04-24T09:10:50;2.50;;;2.40;;
27113;SDS011;14648;49.730;8.614;2023-04-24T09:13:17;3.03;;;2.80;;
27113;SDS011;14648;49.730;8.614;2023-04-24T09:15:44;3.13;;;2.93;;
27113;SDS011;14648;49.730;8.614;2023-04-24T09:18:10;3.20;;;3.00;;
27113;SDS011;14648;49.730;8.614;2023-04-24T09:20:56;8.17;;;2.83;;
27113;SDS011;14648;49.730;8.614;2023-04-24T09:23:27;2.87;;;2.60;;
27113;SDS011;14648;49.730;8.614;2023-04-24T09:25:56;2.90;;;2.70;;
27113;SDS011;14648;49.730;8.614;2023-04-24T09:28:29;2.70;;;2.50;;
27113;SDS011;14648;49.730;8.614;2023-04-24T09:31:05;2.67;;;2.47;;
27113;SDS011;14648;49.730;8.614;2023-04-24T09:33:39;6.93;;;3.10;;
27113;SDS011;14648;49.730;8.614;2023-04-24T09:36:05;3.20;;;3.00;;
27113;SDS011;14648;49.730;8.614;2023-04-24T09:38:37;3.43;;;3.13;;
27113;SDS011;14648;49.730;8.614;2023-04-24T09:41:07;2.87;;;2.67;;
27113;SDS011;14648;49.730;8.614;2023-04-24T09:43:34;3.63;;;2.10;;
27113;SDS011;14648;49.730;8.614;2023-04-24T09:46:04;3.57;;;3.27;;
27113;SDS011;14648;49.730;8.614;2023-04-24T09:48:35;3.03;;;2.83;;
27113;SDS011;14648;49.730;8.614;2023-04-24T09:51:03;2.53;;;2.43;;
27113;SDS011;14648;49.730;8.614;2023-04-24T09:53:32;3.87;;;2.57;;
27113;SDS011;14648;49.730;8.614;2023-04-24T09:56:10;2.43;;;2.30;;
27113;SDS011;14648;49.730;8.614;2023-04-24T09:58:38;2.50;;;2.30;;
27113;SDS011;14648;49.730;8.614;2023-04-24T10:01:04;2.67;;;2.50;;
27113;SDS011;14648;49.730;8.614;2023-04-24T10:03:30;3.00;;;2.33;;
27113;SDS011;14648;49.730;8.614;2023-04-24T10:06:01;1.83;;;1.73;;
27113;SDS011;14648;49.730;8.614;2023-04-24T10:08:33;2.33;;;2.23;;
27113;SDS011;14648;49.730;8.614;2023-04-24T10:11:01;2.50;;;2.40;;
27113;SDS011;14648;49.730;8.614;2023-04-24T10:13:26;1.93;;;1.83;;
27113;SDS011;14648;49.730;8.614;2023-04-24T10:15:53;2.17;;;2.07;;
27113;SDS011;14648;49.730;8.614;2023-04-24T10:18:21;2.17;;;1.80;;
27113;SDS011;14648;49.730;8.614;2023-04-24T10:20:47;1.50;;;1.40;;
27113;SDS011;14648;49.730;8.614;2023-04-24T10:23:13;2.77;;;2.57;;
27113;SDS011;14648;49.730;8.614;2023-04-24T10:25:40;2.57;;;2.20;;
27113;SDS011;14648;49.730;8.614;2023-04-24T10:28:06;2.20;;;2.00;;
27113;SDS011;14648;49.730;8.614;2023-04-24T10:30:33;4.80;;;2.23;;
27113;SDS011;14648;49.730;8.614;2023-04-24T10:33:03;1.83;;;1.70;;
27113;SDS011;14648;49.730;8.614;2023-04-24T10:35:32;2.53;;;1.77;;
27113;SDS011;14648;49.730;8.614;2023-04-24T10:38:05;1.73;;;1.63;;
27113;SDS011;14648;49.730;8.614;2023-04-24T10:40:35;2.47;;;1.97;;
27113;SDS011;14648;49.730;8.614;2023-04-24T10:43:02;2.47;;;1.73;;
27113;SDS011;14648;49.730;8.614;2023-04-24T10:45:31;2.00;;;1.90;;
27113;SDS011;14648;49.730;8.614;2023-04-24T10:47:57;4.50;;;2.30;;
27113;SDS011;14648;49.730;8.614;2023-04-24T10:50:30;1.80;;;1.70;;
27113;SDS011;14648;49.730;8.614;2023-04-24T10:53:15;5.33;;;2.17;;
27113;SDS011;14648;49.730;8.614;2023-04-24T10:55:48;1.83;;;1.73;;
27113;SDS011;14648;49.730;8.614;2023-04-24T10:58:35;2.93;;;1.67;;
27113;SDS011;14648;49.730;8.614;2023-04-24T11:01:09;2.07;;;1.93;;
27113;SDS011;14648;49.730;8.614;2023-04-24T11:03:57;2.23;;;2.03;;
27113;SDS011;14648;49.730;8.614;2023-04-24T11:06:36;3.47;;;2.30;;
27113;SDS011;14648;49.730;8.614;2023-04-24T11:09:07;2.23;;;2.13;;
27113;SDS011;14648;49.730;8.614;2023-04-24T11:11:35;1.87;;;1.70;;
27113;SDS011;14648;49.730;8.614;2023-04-24T11:14:03;2.13;;;2.03;;
27113;SDS011;14648;49.730;8.614;2023-04-24T11:16:32;2.10;;;2.00;;
27113;SDS011;14648;49.730;8.614;2023-04-24T11:19:18;3.17;;;2.77;;
27113;SDS011;14648;49.730;8.614;2023-04-24T11:32:28;1.80;;;1.70;;
27113;SDS011;14648;49.730;8.614;2023-04-24T11:37:34;2.40;;;2.20;;
27113;SDS011;14648;49.730;8.614;2023-04-24T11:40:08;2.20;;;2.10;;
27113;SDS011;14648;49.730;8.614;2023-04-24T11:45:06;2.17;;;2.00;;
27113;SDS011;14648;49.730;8.614;2023-04-24T11:47:42;5.53;;;2.40;;
27113;SDS011;14648;49.730;8.614;2023-04-24T11:50:11;2.37;;;2.27;;
27113;SDS011;14648;49.730;8.614;2023-04-24T11:52:42;4.33;;;3.00;;
27113;SDS011;14648;49.730;8.614;2023-04-24T11:57:38;2.67;;;2.43;;
27113;SDS011;14648;49.730;8.614;2023-04-24T12:00:04;2.70;;;2.50;;
27113;SDS011;14648;49.730;8.614;2023-04-24T12:02:31;5.27;;;2.87;;
27113;SDS011;14648;49.730;8.614;2023-04-24T12:04:57;3.20;;;2.90;;
27113;SDS011;14648;49.730;8.614;2023-04-24T12:07:22;3.50;;;2.80;;
27113;SDS011;14648;49.730;8.614;2023-04-24T12:09:55;5.03;;;2.60;;
27113;SDS011;14648;49.730;8.614;2023-04-24T12:12:25;3.37;;;3.07;;
27113;SDS011;14648;49.730;8.614;2023-04-24T12:14:53;5.73;;;3.23;;
27113;SDS011;14648;49.730;8.614;2023-04-24T12:17:24;9.47;;;2.97;;
27113;SDS011;14648;49.730;8.614;2023-04-24T12:22:49;2.50;;;2.40;;
27113;SDS011;14648;49.730;8.614;2023-04-24T12:25:20;4.33;;;2.80;;
27113;SDS011;14648;49.730;8.614;2023-04-24T12:27:55;7.97;;;3.00;;
27113;SDS011;14648;49.730;8.614;2023-04-24T12:30:40;5.20;;;3.53;;
27113;SDS011;14648;49.730;8.614;2023-04-24T12:33:09;3.20;;;3.00;;
27113;SDS011;14648;49.730;8.614;2023-04-24T12:35:35;5.53;;;3.57;;
27113;SDS011;14648;49.730;8.614;2023-04-24T12:38:15;4.10;;;3.40;;
27113;SDS011;14648;49.730;8.614;2023-04-24T12:40:43;5.63;;;3.33;;
27113;SDS011;14648;49.730;8.614;2023-04-24T12:43:16;5.50;;;3.00;;
27113;SDS011;14648;49.730;8.614;2023-04-24T12:45:43;4.10;;;3.30;;
27113;SDS011;14648;49.730;8.614;2023-04-24T12:48:10;2.53;;;2.30;;
27113;SDS011;14648;49.730;8.614;2023-04-24T12:50:36;6.30;;;2.97;;
27113;SDS011;14648;49.730;8.614;2023-04-24T12:53:03;4.50;;;3.30;;
27113;SDS011;14648;49.730;8.614;2023-04-24T12:55:28;4.23;;;2.80;;
27113;SDS011;14648;49.730;8.614;2023-04-24T12:57:54;2.57;;;2.47;;
27113;SDS011;14648;49.730;8.614;2023-04-24T13:00:21;2.87;;;2.50;;
27113;SDS011;14648;49.730;8.614;2023-04-24T13:02:47;5.43;;;3.17;;
27113;SDS011;14648;49.730;8.614;2023-04-24T13:05:14;8.83;;;3.10;;
27113;SDS011;14648;49.730;8.614;2023-04-24T13:07:40;3.63;;;3.40;;
27113;SDS011;14648;49.730;8.614;2023-04-24T13:10:06;2.40;;;2.23;;
27113;SDS011;14648;49.730;8.614;2023-04-24T13:12:32;4.03;;;2.70;;
27113;SDS011;14648;49.730;8.614;2023-04-24T13:14:59;14.63;;;3.30;;
27113;SDS011;14648;49.730;8.614;2023-04-24T13:17:25;2.07;;;1.93;;
27113;SDS011;14648;49.730;8.614;2023-04-24T13:19:51;3.53;;;2.80;;
27113;SDS011;14648;49.730;8.614;2023-04-24T13:22:19;2.53;;;2.43;;
27113;SDS011;14648;49.730;8.614;2023-04-24T13:24:45;4.00;;;3.30;;
27113;SDS011;14648;49.730;8.614;2023-04-24T13:27:13;2.87;;;2.50;;
27113;SDS011;14648;49.730;8.614;2023-04-24T13:29:40;2.30;;;2.13;;
27113;SDS011;14648;49.730;8.614;2023-04-24T13:32:06;2.20;;;2.00;;
27113;SDS011;14648;49.730;8.614;2023-04-24T13:34:33;3.67;;;2.63;;
27113;SDS011;14648;49.730;8.614;2023-04-24T13:37:00;4.60;;;2.53;;
27113;SDS011;14648;49.730;8.614;2023-04-24T13:39:27;2.80;;;2.60;;
27113;SDS011;14648;49.730;8.614;2023-04-24T13:41:53;6.43;;;2.10;;
27113;SDS011;14648;49.730;8.614;2023-04-24T13:44:19;5.50;;;3.07;;
27113;SDS011;14648;49.730;8.614;2023-04-24T13:46:47;6.90;;;2.90;;
27113;SDS011;14648;49.730;8.614;2023-04-24T13:49:16;4.43;;;3.10;;
27113;SDS011;14648;49.730;8.614;2023-04-24T13:51:42;4.37;;;2.30;;
27113;SDS011;14648;49.730;8.614;2023-04-24T13:54:08;5.27;;;2.80;;
27113;SDS011;14648;49.730;8.614;2023-04-24T13:56:34;3.40;;;2.10;;
27113;SDS011;14648;49.730;8.614;2023-04-24T13:59:00;2.50;;;2.37;;
27113;SDS011;14648;49.730;8.614;2023-04-24T14:01:26;5.57;;;2.83;;
27113;SDS011;14648;49.730;8.614;2023-04-24T14:03:52;1.93;;;1.83;;
27113;SDS011;14648;49.730;8.614;2023-04-24T14:06:19;2.93;;;2.23;;
27113;SDS011;14648;49.730;8.614;2023-04-24T14:08:45;3.33;;;2.60;;
27113;SDS011;14648;49.730;8.614;2023-04-24T14:11:12;4.93;;;3.20;;
27113;SDS011;14648;49.730;8.614;2023-04-24T14:13:41;6.20;;;2.93;;
27113;SDS011;14648;49.730;8.614;2023-04-24T14:16:07;2.63;;;2.43;;
27113;SDS011;14648;49.730;8.614;2023-04-24T14:18:33;12.13;;;3.00;;
27113;SDS011;14648;49.730;8.614;2023-04-24T14:20:59;2.50;;;2.30;;
27113;SDS011;14648;49.730;8.614;2023-04-24T14:23:26;5.93;;;2.47;;
27113;SDS011;14648;49.730;8.614;2023-04-24T14:25:52;3.27;;;2.03;;
27113;SDS011;14648;49.730;8.614;2023-04-24T14:28:18;6.90;;;2.57;;
27113;SDS011;14648;49.730;8.614;2023-04-24T14:30:45;5.50;;;2.63;;
27113;SDS011;14648;49.730;8.614;2023-04-24T14:33:12;3.30;;;3.03;;
27113;SDS011;14648;49.730;8.614;2023-04-24T14:35:38;2.67;;;2.47;;
27113;SDS011;14648;49.730;8.614;2023-04-24T14:38:06;3.87;;;3.40;;
27113;SDS011;14648;49.730;8.614;2023-04-24T14:40:32;2.00;;;1.90;;
27113;SDS011;14648;49.730;8.614;2023-04-24T14:42:58;2.20;;;2.00;;
27113;SDS011;14648;49.730;8.614;2023-04-24T14:45:24;1.90;;;1.80;;
27113;SDS011;14648;49.730;8.614;2023-04-24T14:47:51;4.17;;;2.60;;
27113;SDS011;14648;49.730;8.614;2023-04-24T14:50:18;2.50;;;2.30;;
27113;SDS011;14648;49.730;8.614;2023-04-24T14:52:44;2.70;;;2.50;;
27113;SDS011;14648;49.730;8.614;2023-04-24T14:55:10;1.83;;;1.73;;
27113;SDS011;14648;49.730;8.614;2023-04-24T14:57:35;2.70;;;2.50;;
27113;SDS011;14648;49.730;8.614;2023-04-24T15:00:05;2.40;;;2.20;;
27113;SDS011;14648;49.730;8.614;2023-04-24T15:02:33;2.60;;;2.40;;
27113;SDS011;14648;49.730;8.614;2023-04-24T15:05:01;6.43;;;2.43;;
27113;SDS011;14648;49.730;8.614;2023-04-24T15:07:27;2.77;;;2.57;;
27113;SDS011;14648;49.730;8.614;2023-04-24T15:09:54;3.60;;;2.37;;